Date,TemperatureHighF,TemperatureAvgF,TemperatureLowF,DewpointHighF,DewpointAvgF,DewpointLowF,HumidityHigh,HumidityAvg,HumidityLow,PressureMaxIn,PressureMinIn,WindSpeedMaxMPH,WindSpeedAvgMPH,GustSpeedMaxMPH,PrecipitationSumIn
2013-12-1,48,47,41,46,43,39,92,87,80,30.52,30.36,7,2,15,0.00
2013-12-2,48,42,36,42,38,34,91,85,73,30.57,30.45,6,1,8,0.00
2013-12-3,44,38,32,40,36,31,97,92,83,30.45,30.28,3,0,5,0.01
2013-12-4,47,44,39,46,41,37,96,88,75,30.38,30.23,14,4,21,0.03
2013-12-5,50,45,40,45,39,31,93,80,64,30.38,29.78,29,10,37,0.21
2013-12-6,43,42,38,35,32,27,84,68,55,30.30,30.02,25,10,30,0.05
2013-12-7,48,45,40,45,41,32,96,86,70,30.30,30.21,12,4,17,0.06
2013-12-8,49,47,44,46,45,43,96,92,86,30.25,30.20,13,4,18,0.03
2013-12-9,50,47,42,47,45,41,96,94,89,30.48,30.24,14,3,18,0.00
2013-12-10,45,40,37,41,37,35,96,90,80,30.52,30.48,3,1,7,0.02
2013-12-11,45,40,34,39,36,33,96,87,77,30.51,30.41,3,1,7,0.01
2013-12-12,39,36,31,36,34,30,96,92,87,30.41,30.27,7,2,10,0.01
2013-12-13,40,39,34,38,37,33,98,93,91,30.27,30.11,6,2,9,0.01
2013-12-14,47,44,39,44,41,38,97,89,84,30.31,30.12,10,3,13,0.09
2013-12-15,48,46,43,46,44,39,92,90,82,30.28,30.15,8,3,17,0.11
2013-12-16,53,50,46,45,43,41,91,77,69,30.16,30.08,11,4,17,0.00
2013-12-17,49,44,42,45,42,41,95,90,82,30.25,30.08,10,2,11,0.02
2013-12-18,48,45,44,44,42,40,92,88,84,30.08,29.56,9,4,16,0.02
2013-12-19,49,46,41,46,42,39,95,87,79,29.84,29.44,12,3,19,0.39
2013-12-20,47,44,40,42,32,-100,95,86,80,30.26,29.84,12,-2,19,0.01
2013-12-21,46,44,43,43,42,39,95,91,84,30.22,29.87,19,6,22,0.28
2013-12-22,50,46,44,46,43,41,94,90,86,29.91,29.77,13,4,20,0.09
2013-12-23,51,46,41,46,42,39,93,89,84,29.96,29.27,15,5,25,0.08
2013-12-24,51,49,46,48,46,42,95,89,80,29.27,29.04,16,5,28,0.40
2013-12-25,46,44,40,45,41,38,96,90,81,29.27,28.99,9,2,14,0.13
2013-12-26,45,42,39,43,40,37,95,91,82,29.57,29.26,6,2,9,0.00
2013-12-27,49,46,39,47,44,37,95,91,87,29.52,29.22,15,5,20,0.13
2013-12-28,47,44,40,44,42,38,95,92,85,29.66,29.32,6,2,13,0.09
2013-12-29,46,42,38,42,39,37,96,89,80,30.16,29.66,7,2,12,0.08
2013-12-30,45,43,39,42,40,37,93,89,84,30.17,29.91,16,5,20,0.05
2013-12-31,48,44,42,43,41,38,94,87,72,30.01,29.70,11,4,18,0.26